sensor_id;sensor_type;location;lat;lon;timestamp;P1;durP1;ratioP1;P2;durP2;ratioP2
27412;SDS011;14871;52.702;5.230;2024-01-15T00:01:33;13.23;;;1.48;;
27412;SDS011;14871;52.702;5.230;2024-01-15T00:03:59;8.15;;;1.88;;
27412;SDS011;14871;52.702;5.230;2024-01-15T00:06:25;14.48;;;2.05;;
27412;SDS011;14871;52.702;5.230;2024-01-15T00:08:52;12.57;;;1.67;;
27412;SDS011;14871;52.702;5.230;2024-01-15T00:11:17;10.05;;;1.42;;
27412;SDS011;14871;52.702;5.230;2024-01-15T00:13:43;12.57;;;2.22;;
27412;SDS011;14871;52.702;5.230;2024-01-15T00:16:08;11.35;;;2.03;;
27412;SDS011;14871;52.702;5.230;2024-01-15T00:18:34;12.27;;;2.33;;
27412;SDS011;14871;52.702;5.230;2024-01-15T00:20:59;10.65;;;2.03;;
27412;SDS011;14871;52.702;5.230;2024-01-15T00:23:25;11.63;;;1.90;;
27412;SDS011;14871;52.702;5.230;2024-01-15T00:25:51;9.82;;;1.95;;
27412;SDS011;14871;52.702;5.230;2024-01-15T00:28:16;7.68;;;1.70;;
27412;SDS011;14871;52.702;5.230;2024-01-15T00:30:42;14.82;;;1.80;;
27412;SDS011;14871;52.702;5.230;2024-01-15T00:33:08;9.23;;;1.38;;
27412;SDS011;14871;52.702;5.230;2024-01-15T00:35:33;8.10;;;1.95;;
27412;SDS011;14871;52.702;5.230;2024-01-15T00:37:59;10.45;;;1.67;;
27412;SDS011;14871;52.702;5.230;2024-01-15T00:40:25;11.32;;;1.75;;
27412;SDS011;14871;52.702;5.230;2024-01-15T00:42:50;16.67;;;2.20;;
27412;SDS011;14871;52.702;5.230;2024-01-15T00:45:16;14.23;;;2.25;;
27412;SDS011;14871;52.702;5.230;2024-01-15T00:47:42;10.07;;;1.30;;
27412;SDS011;14871;52.702;5.230;2024-01-15T00:50:07;11.75;;;1.50;;
27412;SDS011;14871;52.702;5.230;2024-01-15T00:52:33;15.52;;;1.60;;
27412;SDS011;14871;52.702;5.230;2024-01-15T00:54:59;14.43;;;1.85;;
27412;SDS011;14871;52.702;5.230;2024-01-15T00:57:24;8.88;;;1.90;;
27412;SDS011;14871;52.702;5.230;2024-01-15T00:59:50;8.90;;;1.77;;
27412;SDS011;14871;52.702;5.230;2024-01-15T01:02:16;8.02;;;2.05;;
27412;SDS011;14871;52.702;5.230;2024-01-15T01:04:41;9.07;;;1.75;;
27412;SDS011;14871;52.702;5.230;2024-01-15T01:07:07;13.02;;;1.85;;
27412;SDS011;14871;52.702;5.230;2024-01-15T01:09:33;12.98;;;1.67;;
27412;SDS011;14871;52.702;5.230;2024-01-15T01:11:58;12.63;;;1.85;;
27412;SDS011;14871;52.702;5.230;2024-01-15T01:14:24;12.57;;;1.33;;
27412;SDS011;14871;52.702;5.230;2024-01-15T01:16:49;9.30;;;1.40;;
27412;SDS011;14871;52.702;5.230;2024-01-15T01:19:15;16.48;;;2.05;;
27412;SDS011;14871;52.702;5.230;2024-01-15T01:21:41;12.35;;;1.50;;
27412;SDS011;14871;52.702;5.230;2024-01-15T01:24:07;17.67;;;1.77;;
27412;SDS011;14871;52.702;5.230;2024-01-15T01:26:32;12.27;;;2.00;;
27412;SDS011;14871;52.702;5.230;2024-01-15T01:28:58;12.73;;;1.58;;
27412;SDS011;14871;52.702;5.230;2024-01-15T01:31:24;10.88;;;1.55;;
27412;SDS011;14871;52.702;5.230;2024-01-15T01:33:50;10.23;;;1.63;;
27412;SDS011;14871;52.702;5.230;2024-01-15T01:36:15;16.45;;;2.42;;
27412;SDS011;14871;52.702;5.230;2024-01-15T01:38:41;9.80;;;2.20;;
27412;SDS011;14871;52.702;5.230;2024-01-15T01:41:07;12.32;;;1.70;;
27412;SDS011;14871;52.702;5.230;2024-01-15T01:43:32;11.55;;;1.27;;
27412;SDS011;14871;52.702;5.230;2024-01-15T01:45:58;11.05;;;1.58;;
27412;SDS011;14871;52.702;5.230;2024-01-15T01:48:25;7.38;;;1.70;;
27412;SDS011;14871;52.702;5.230;2024-01-15T01:50:55;13.60;;;1.70;;
27412;SDS011;14871;52.702;5.230;2024-01-15T01:53:23;15.32;;;2.20;;
27412;SDS011;14871;52.702;5.230;2024-01-15T01:55:50;10.05;;;1.83;;
27412;SDS011;14871;52.702;5.230;2024-01-15T01:58:16;10.25;;;2.00;;
27412;SDS011;14871;52.702;5.230;2024-01-15T02:00:42;13.82;;;1.95;;
27412;SDS011;14871;52.702;5.230;2024-01-15T02:03:08;12.35;;;1.85;;
27412;SDS011;14871;52.702;5.230;2024-01-15T02:05:34;12.68;;;1.80;;
27412;SDS011;14871;52.702;5.230;2024-01-15T02:08:01;7.85;;;1.55;;
27412;SDS011;14871;52.702;5.230;2024-01-15T02:10:26;11.77;;;1.70;;
27412;SDS011;14871;52.702;5.230;2024-01-15T02:12:52;12.63;;;1.75;;
27412;SDS011;14871;52.702;5.230;2024-01-15T02:15:18;11.35;;;1.85;;
27412;SDS011;14871;52.702;5.230;2024-01-15T02:17:56;9.77;;;1.67;;
27412;SDS011;14871;52.702;5.230;2024-01-15T02:23:01;10.00;;;1.67;;
27412;SDS011;14871;52.702;5.230;2024-01-15T02:25:35;9.98;;;1.98;;
27412;SDS011;14871;52.702;5.230;2024-01-15T02:28:15;11.80;;;1.88;;
27412;SDS011;14871;52.702;5.230;2024-01-15T02:30:42;8.95;;;1.73;;
27412;SDS011;14871;52.702;5.230;2024-01-15T02:33:09;14.13;;;1.55;;
27412;SDS011;14871;52.702;5.230;2024-01-15T02:35:35;7.40;;;2.10;;
27412;SDS011;14871;52.702;5.230;2024-01-15T02:38:02;9.02;;;1.70;;
27412;SDS011;14871;52.702;5.230;2024-01-15T02:40:28;14.57;;;2.33;;
27412;SDS011;14871;52.702;5.230;2024-01-15T02:42:54;10.00;;;1.88;;
27412;SDS011;14871;52.702;5.230;2024-01-15T02:45:19;16.25;;;2.17;;
27412;SDS011;14871;52.702;5.230;2024-01-15T02:47:46;15.65;;;2.05;;
27412;SDS011;14871;52.702;5.230;2024-01-15T02:50:11;15.55;;;1.77;;
27412;SDS011;14871;52.702;5.230;2024-01-15T02:52:37;16.75;;;1.92;;
27412;SDS011;14871;52.702;5.230;2024-01-15T02:55:03;16.10;;;1.77;;
27412;SDS011;14871;52.702;5.230;2024-01-15T02:57:29;12.18;;;1.63;;
27412;SDS011;14871;52.702;5.230;2024-01-15T02:59:54;11.57;;;1.75;;
27412;SDS011;14871;52.702;5.230;2024-01-15T03:02:20;14.43;;;2.47;;
27412;SDS011;14871;52.702;5.230;2024-01-15T03:04:45;12.43;;;1.88;;
27412;SDS011;14871;52.702;5.230;2024-01-15T03:07:11;13.48;;;1.67;;
27412;SDS011;14871;52.702;5.230;2024-01-15T03:09:37;11.73;;;1.80;;
27412;SDS011;14871;52.702;5.230;2024-01-15T03:12:03;14.90;;;1.95;;
27412;SDS011;14871;52.702;5.230;2024-01-15T03:14:29;9.82;;;1.73;;
27412;SDS011;14871;52.702;5.230;2024-01-15T03:16:55;9.48;;;1.85;;
27412;SDS011;14871;52.702;5.230;2024-01-15T03:19:20;7.43;;;1.40;;
27412;SDS011;14871;52.702;5.230;2024-01-15T03:21:46;14.25;;;1.83;;
27412;SDS011;14871;52.702;5.230;2024-01-15T03:24:12;12.98;;;1.98;;
27412;SDS011;14871;52.702;5.230;2024-01-15T03:26:37;14.80;;;1.42;;
27412;SDS011;14871;52.702;5.230;2024-01-15T03:29:03;18.48;;;1.83;;
27412;SDS011;14871;52.702;5.230;2024-01-15T03:31:28;9.80;;;1.63;;
27412;SDS011;14871;52.702;5.230;2024-01-15T03:33:54;6.35;;;1.27;;
27412;SDS011;14871;52.702;5.230;2024-01-15T03:36:20;13.18;;;1.70;;
27412;SDS011;14871;52.702;5.230;2024-01-15T03:38:45;10.88;;;1.92;;
27412;SDS011;14871;52.702;5.230;2024-01-15T03:41:11;16.80;;;1.85;;
27412;SDS011;14871;52.702;5.230;2024-01-15T03:43:37;12.00;;;1.58;;
27412;SDS011;14871;52.702;5.230;2024-01-15T03:46:03;14.68;;;2.63;;
27412;SDS011;14871;52.702;5.230;2024-01-15T03:48:29;12.75;;;1.98;;
27412;SDS011;14871;52.702;5.230;2024-01-15T03:50:55;13.07;;;1.88;;
27412;SDS011;14871;52.702;5.230;2024-01-15T03:53:21;15.13;;;2.45;;
27412;SDS011;14871;52.702;5.230;2024-01-15T03:55:46;11.82;;;2.03;;
27412;SDS011;14871;52.702;5.230;2024-01-15T03:58:12;13.43;;;2.33;;
27412;SDS011;14871;52.702;5.230;2024-01-15T04:00:39;16.00;;;2.17;;
27412;SDS011;14871;52.702;5.230;2024-01-15T04:03:05;12.52;;;1.92;;
27412;SDS011;14871;52.702;5.230;2024-01-15T04:05:31;18.30;;;2.80;;
27412;SDS011;14871;52.702;5.230;2024-01-15T04:07:57;12.38;;;2.30;;
27412;SDS011;14871;52.702;5.230;2024-01-15T04:10:22;12.90;;;2.13;;
27412;SDS011;14871;52.702;5.230;2024-01-15T04:12:48;10.82;;;1.95;;
27412;SDS011;14871;52.702;5.230;2024-01-15T04:15:13;9.30;;;2.13;;
27412;SDS011;14871;52.702;5.230;2024-01-15T04:17:39;14.68;;;1.55;;
27412;SDS011;14871;52.702;5.230;2024-01-15T04:20:05;10.13;;;1.92;;
27412;SDS011;14871;52.702;5.230;2024-01-15T04:22:31;13.07;;;1.70;;
27412;SDS011;14871;52.702;5.230;2024-01-15T04:24:58;13.60;;;1.92;;
27412;SDS011;14871;52.702;5.230;2024-01-15T04:27:24;16.17;;;2.28;;
27412;SDS011;14871;52.702;5.230;2024-01-15T04:29:49;10.30;;;1.50;;
27412;SDS011;14871;52.702;5.230;2024-01-15T04:32:15;6.78;;;1.42;;
27412;SDS011;14871;52.702;5.230;2024-01-15T04:34:41;9.77;;;1.67;;
27412;SDS011;14871;52.702;5.230;2024-01-15T04:37:06;9.30;;;1.42;;
27412;SDS011;14871;52.702;5.230;2024-01-15T04:39:32;6.47;;;1.20;;
27412;SDS011;14871;52.702;5.230;2024-01-15T04:41:58;7.55;;;0.80;;
27412;SDS011;14871;52.702;5.230;2024-01-15T04:44:23;8.00;;;1.30;;
27412;SDS011;14871;52.702;5.230;2024-01-15T04:46:49;10.57;;;1.48;;
27412;SDS011;14871;52.702;5.230;2024-01-15T04:49:14;9.00;;;1.40;;
27412;SDS011;14871;52.702;5.230;2024-01-15T04:51:40;8.93;;;2.35;;
27412;SDS011;14871;52.702;5.230;2024-01-15T04:54:05;5.97;;;1.13;;
27412;SDS011;14871;52.702;5.230;2024-01-15T04:56:31;7.05;;;1.45;;
27412;SDS011;14871;52.702;5.230;2024-01-15T04:58:57;8.23;;;2.65;;
27412;SDS011;14871;52.702;5.230;2024-01-15T05:01:22;9.70;;;1.67;;
27412;SDS011;14871;52.702;5.230;2024-01-15T05:03:48;7.50;;;1.40;;
27412;SDS011;14871;52.702;5.230;2024-01-15T05:06:14;7.72;;;1.17;;
27412;SDS011;14871;52.702;5.230;2024-01-15T05:08:40;5.68;;;1.55;;
27412;SDS011;14871;52.702;5.230;2024-01-15T05:11:06;9.75;;;1.35;;
27412;SDS011;14871;52.702;5.230;2024-01-15T05:13:31;7.07;;;1.20;;
27412;SDS011;14871;52.702;5.230;2024-01-15T05:15:57;11.35;;;1.67;;
27412;SDS011;14871;52.702;5.230;2024-01-15T05:18:23;11.77;;;1.48;;
27412;SDS011;14871;52.702;5.230;2024-01-15T05:20:48;9.13;;;1.70;;
27412;SDS011;14871;52.702;5.230;2024-01-15T05:23:14;6.45;;;1.23;;
27412;SDS011;14871;52.702;5.230;2024-01-15T05:25:39;12.15;;;5.38;;
27412;SDS011;14871;52.702;5.230;2024-01-15T05:28:05;13.32;;;4.05;;
27412;SDS011;14871;52.702;5.230;2024-01-15T05:30:31;8.40;;;3.15;;
27412;SDS011;14871;52.702;5.230;2024-01-15T05:32:56;6.57;;;1.52;;
27412;SDS011;14871;52.702;5.230;2024-01-15T05:35:22;7.97;;;1.45;;
27412;SDS011;14871;52.702;5.230;2024-01-15T05:37:48;8.23;;;1.23;;
27412;SDS011;14871;52.702;5.230;2024-01-15T05:40:14;7.95;;;1.27;;
27412;SDS011;14871;52.702;5.230;2024-01-15T05:42:40;9.32;;;1.50;;
27412;SDS011;14871;52.702;5.230;2024-01-15T05:45:06;7.10;;;1.85;;
27412;SDS011;14871;52.702;5.230;2024-01-15T05:47:32;11.50;;;1.40;;
27412;SDS011;14871;52.702;5.230;2024-01-15T05:49:59;5.43;;;1.13;;
27412;SDS011;14871;52.702;5.230;2024-01-15T05:52:25;8.30;;;1.25;;
27412;SDS011;14871;52.702;5.230;2024-01-15T05:54:51;6.78;;;0.90;;
27412;SDS011;14871;52.702;5.230;2024-01-15T05:57:16;5.50;;;1.55;;
27412;SDS011;14871;52.702;5.230;2024-01-15T05:59:43;8.95;;;1.10;;
27412;SDS011;14871;52.702;5.230;2024-01-15T06:02:09;9.18;;;1.25;;
27412;SDS011;14871;52.702;5.230;2024-01-15T06:04:35;7.28;;;1.13;;
27412;SDS011;14871;52.702;5.230;2024-01-15T06:07:01;4.10;;;1.05;;
27412;SDS011;14871;52.702;5.230;2024-01-15T06:09:27;5.70;;;0.90;;
27412;SDS011;14871;52.702;5.230;2024-01-15T06:11:53;6.97;;;1.20;;
27412;SDS011;14871;52.702;5.230;2024-01-15T06:14:19;6.25;;;1.10;;
27412;SDS011;14871;52.702;5.230;2024-01-15T06:16:44;8.07;;;1.17;;
27412;SDS011;14871;52.702;5.230;2024-01-15T06:19:10;6.93;;;1.23;;
27412;SDS011;14871;52.702;5.230;2024-01-15T06:21:35;4.72;;;0.98;;
27412;SDS011;14871;52.702;5.230;2024-01-15T06:24:01;6.32;;;1.08;;
27412;SDS011;14871;52.702;5.230;2024-01-15T06:26:27;10.13;;;2.25;;
27412;SDS011;14871;52.702;5.230;2024-01-15T06:28:52;10.73;;;1.50;;
27412;SDS011;14871;52.702;5.230;2024-01-15T06:31:18;9.60;;;1.52;;
27412;SDS011;14871;52.702;5.230;2024-01-15T06:33:44;8.23;;;1.30;;
27412;SDS011;14871;52.702;5.230;2024-01-15T06:36:12;14.48;;;5.70;;
27412;SDS011;14871;52.702;5.230;2024-01-15T06:38:37;11.13;;;1.60;;
27412;SDS011;14871;52.702;5.230;2024-01-15T06:41:03;7.10;;;1.30;;
27412;SDS011;14871;52.702;5.230;2024-01-15T06:43:29;7.80;;;1.42;;
27412;SDS011;14871;52.702;5.230;2024-01-15T06:45:55;6.40;;;1.35;;
27412;SDS011;14871;52.702;5.230;2024-01-15T06:48:20;5.20;;;1.10;;
27412;SDS011;14871;52.702;5.230;2024-01-15T06:50:46;7.20;;;1.20;;
27412;SDS011;14871;52.702;5.230;2024-01-15T06:53:11;6.63;;;0.98;;
27412;SDS011;14871;52.702;5.230;2024-01-15T06:55:38;5.60;;;1.58;;
27412;SDS011;14871;52.702;5.230;2024-01-15T06:58:03;4.05;;;1.40;;
27412;SDS011;14871;52.702;5.230;2024-01-15T07:00:29;6.28;;;1.30;;
27412;SDS011;14871;52.702;5.230;2024-01-15T07:02:55;8.07;;;1.17;;
27412;SDS011;14871;52.702;5.230;2024-01-15T07:05:21;5.22;;;0.80;;
27412;SDS011;14871;52.702;5.230;2024-01-15T07:07:49;10.95;;;1.48;;
27412;SDS011;14871;52.702;5.230;2024-01-15T07:10:14;5.15;;;1.10;;
27412;SDS011;14871;52.702;5.230;2024-01-15T07:12:44;8.95;;;1.02;;
27412;SDS011;14871;52.702;5.230;2024-01-15T07:15:10;7.20;;;1.35;;
27412;SDS011;14871;52.702;5.230;2024-01-15T07:17:36;8.18;;;1.35;;
27412;SDS011;14871;52.702;5.230;2024-01-15T07:20:05;7.90;;;1.23;;
27412;SDS011;14871;52.702;5.230;2024-01-15T07:22:32;8.63;;;1.70;;
27412;SDS011;14871;52.702;5.230;2024-01-15T07:24:58;9.55;;;1.60;;
27412;SDS011;14871;52.702;5.230;2024-01-15T07:27:24;10.02;;;1.45;;
27412;SDS011;14871;52.702;5.230;2024-01-15T07:29:49;8.70;;;1.50;;
27412;SDS011;14871;52.702;5.230;2024-01-15T07:32:15;14.48;;;2.10;;
27412;SDS011;14871;52.702;5.230;2024-01-15T07:34:41;10.80;;;1.80;;
27412;SDS011;14871;52.702;5.230;2024-01-15T07:37:07;8.77;;;1.60;;
27412;SDS011;14871;52.702;5.230;2024-01-15T07:39:32;15.25;;;1.98;;
27412;SDS011;14871;52.702;5.230;2024-01-15T07:41:58;9.80;;;2.10;;
27412;SDS011;14871;52.702;5.230;2024-01-15T07:44:24;8.63;;;1.80;;
27412;SDS011;14871;52.702;5.230;2024-01-15T07:46:49;6.40;;;1.77;;
27412;SDS011;14871;52.702;5.230;2024-01-15T07:49:15;11.80;;;1.58;;
27412;SDS011;14871;52.702;5.230;2024-01-15T07:51:41;8.32;;;1.48;;
27412;SDS011;14871;52.702;5.230;2024-01-15T07:54:08;8.52;;;1.17;;
27412;SDS011;14871;52.702;5.230;2024-01-15T07:56:52;8.80;;;1.00;;
27412;SDS011;14871;52.702;5.230;2024-01-15T07:59:19;12.38;;;1.58;;
27412;SDS011;14871;52.702;5.230;2024-01-15T08:01:44;7.03;;;1.08;;
27412;SDS011;14871;52.702;5.230;2024-01-15T08:04:10;4.47;;;0.90;;
27412;SDS011;14871;52.702;5.230;2024-01-15T08:06:37;10.70;;;1.40;;
27412;SDS011;14871;52.702;5.230;2024-01-15T08:09:03;10.65;;;1.23;;
27412;SDS011;14871;52.702;5.230;2024-01-15T08:11:29;9.88;;;0.98;;
27412;SDS011;14871;52.702;5.230;2024-01-15T08:13:55;8.27;;;1.13;;
27412;SDS011;14871;52.702;5.230;2024-01-15T08:16:21;11.57;;;1.20;;
27412;SDS011;14871;52.702;5.230;2024-01-15T08:18:47;9.00;;;2.22;;
27412;SDS011;14871;52.702;5.230;2024-01-15T08:21:13;5.85;;;1.33;;
27412;SDS011;14871;52.702;5.230;2024-01-15T08:23:38;6.50;;;1.20;;
27412;SDS011;14871;52.702;5.230;2024-01-15T08:26:04;5.80;;;1.08;;
27412;SDS011;14871;52.702;5.230;2024-01-15T08:28:30;7.70;;;1.70;;
27412;SDS011;14871;52.702;5.230;2024-01-15T08:30:55;7.68;;;1.10;;
27412;SDS011;14871;52.702;5.230;2024-01-15T08:33:21;6.18;;;1.20;;
27412;SDS011;14871;52.702;5.230;2024-01-15T08:35:47;9.77;;;1.10;;
27412;SDS011;14871;52.702;5.230;2024-01-15T08:38:13;7.78;;;0.98;;
27412;SDS011;14871;52.702;5.230;2024-01-15T08:40:38;5.15;;;1.33;;
27412;SDS011;14871;52.702;5.230;2024-01-15T08:43:04;6.07;;;1.10;;
27412;SDS011;14871;52.702;5.230;2024-01-15T08:45:31;7.93;;;1.08;;
27412;SDS011;14871;52.702;5.230;2024-01-15T08:47:57;8.75;;;1.17;;
27412;SDS011;14871;52.702;5.230;2024-01-15T08:50:23;9.75;;;1.40;;
27412;SDS011;14871;52.702;5.230;2024-01-15T08:52:49;8.85;;;1.30;;
27412;SDS011;14871;52.702;5.230;2024-01-15T08:55:14;8.50;;;1.42;;
27412;SDS011;14871;52.702;5.230;2024-01-15T08:57:40;5.88;;;1.05;;
27412;SDS011;14871;52.702;5.230;2024-01-15T09:00:05;9.95;;;1.60;;
27412;SDS011;14871;52.702;5.230;2024-01-15T09:02:33;13.45;;;1.55;;
27412;SDS011;14871;52.702;5.230;2024-01-15T09:05:00;10.55;;;1.33;;
27412;SDS011;14871;52.702;5.230;2024-01-15T09:07:26;9.73;;;1.40;;
27412;SDS011;14871;52.702;5.230;2024-01-15T09:09:52;9.90;;;1.38;;
27412;SDS011;14871;52.702;5.230;2024-01-15T09:12:18;11.40;;;1.27;;
27412;SDS011;14871;52.702;5.230;2024-01-15T09:14:45;7.53;;;1.40;;
27412;SDS011;14871;52.702;5.230;2024-01-15T09:17:11;8.23;;;1.20;;
27412;SDS011;14871;52.702;5.230;2024-01-15T09:19:37;9.65;;;1.48;;
27412;SDS011;14871;52.702;5.230;2024-01-15T09:22:06;7.13;;;1.60;;
27412;SDS011;14871;52.702;5.230;2024-01-15T09:24:32;7.57;;;1.08;;
27412;SDS011;14871;52.702;5.230;2024-01-15T09:26:58;7.57;;;1.35;;
27412;SDS011;14871;52.702;5.230;2024-01-15T09:29:24;11.25;;;1.33;;
27412;SDS011;14871;52.702;5.230;2024-01-15T09:31:49;12.52;;;1.50;;
27412;SDS011;14871;52.702;5.230;2024-01-15T09:34:15;11.35;;;1.52;;
27412;SDS011;14871;52.702;5.230;2024-01-15T09:36:42;10.68;;;1.73;;
27412;SDS011;14871;52.702;5.230;2024-01-15T09:39:10;12.93;;;1.65;;
27412;SDS011;14871;52.702;5.230;2024-01-15T09:41:36;10.02;;;1.52;;
27412;SDS011;14871;52.702;5.230;2024-01-15T09:44:06;10.70;;;1.40;;
27412;SDS011;14871;52.702;5.230;2024-01-15T09:46:35;9.27;;;1.30;;
27412;SDS011;14871;52.702;5.230;2024-01-15T09:49:01;7.15;;;1.10;;
27412;SDS011;14871;52.702;5.230;2024-01-15T09:51:28;6.28;;;1.20;;
27412;SDS011;14871;52.702;5.230;2024-01-15T09:53:57;4.97;;;0.90;;
27412;SDS011;14871;52.702;5.230;2024-01-15T09:56:23;4.32;;;1.83;;
27412;SDS011;14871;52.702;5.230;2024-01-15T09:58:49;2.35;;;0.80;;
27412;SDS011;14871;52.702;5.230;2024-01-15T10:01:16;8.10;;;0.98;;
27412;SDS011;14871;52.702;5.230;2024-01-15T10:03:42;7.53;;;0.90;;
27412;SDS011;14871;52.702;5.230;2024-01-15T10:06:08;6.72;;;1.10;;
27412;SDS011;14871;52.702;5.230;2024-01-15T10:08:36;3.17;;;0.60;;
27412;SDS011;14871;52.702;5.230;2024-01-15T10:11:02;4.28;;;0.85;;
27412;SDS011;14871;52.702;5.230;2024-01-15T10:13:29;1.05;;;0.30;;
27412;SDS011;14871;52.702;5.230;2024-01-15T10:15:55;0.47;;;0.15;;
27412;SDS011;14871;52.702;5.230;2024-01-15T10:18:21;0.88;;;0.20;;
27412;SDS011;14871;52.702;5.230;2024-01-15T10:20:46;2.13;;;0.35;;
27412;SDS011;14871;52.702;5.230;2024-01-15T10:23:13;2.33;;;0.40;;
27412;SDS011;14871;52.702;5.230;2024-01-15T10:25:41;2.22;;;0.50;;
27412;SDS011;14871;52.702;5.230;2024-01-15T10:28:07;1.85;;;0.30;;
27412;SDS011;14871;52.702;5.230;2024-01-15T10:30:33;2.78;;;0.50;;
27412;SDS011;14871;52.702;5.230;2024-01-15T10:33:00;3.47;;;0.50;;
27412;SDS011;14871;52.702;5.230;2024-01-15T10:35:30;4.82;;;0.70;;
27412;SDS011;14871;52.702;5.230;2024-01-15T10:37:56;3.50;;;0.57;;
27412;SDS011;14871;52.702;5.230;2024-01-15T10:40:23;2.00;;;0.50;;
27412;SDS011;14871;52.702;5.230;2024-01-15T10:42:48;5.70;;;0.70;;
27412;SDS011;14871;52.702;5.230;2024-01-15T10:45:14;5.68;;;1.92;;
27412;SDS011;14871;52.702;5.230;2024-01-15T10:47:40;5.90;;;0.60;;
27412;SDS011;14871;52.702;5.230;2024-01-15T10:50:06;7.43;;;0.90;;
27412;SDS011;14871;52.702;5.230;2024-01-15T10:52:36;5.97;;;0.95;;
27412;SDS011;14871;52.702;5.230;2024-01-15T10:55:05;5.53;;;1.27;;
27412;SDS011;14871;52.702;5.230;2024-01-15T10:57:33;7.15;;;1.38;;
27412;SDS011;14871;52.702;5.230;2024-01-15T10:59:59;9.23;;;1.98;;
27412;SDS011;14871;52.702;5.230;2024-01-15T11:02:28;5.50;;;1.20;;
27412;SDS011;14871;52.702;5.230;2024-01-15T11:04:54;8.05;;;1.45;;
27412;SDS011;14871;52.702;5.230;2024-01-15T11:07:21;11.35;;;1.40;;
27412;SDS011;14871;52.702;5.230;2024-01-15T11:09:48;8.00;;;1.27;;
27412;SDS011;14871;52.702;5.230;2024-01-15T11:12:15;12.30;;;1.70;;
27412;SDS011;14871;52.702;5.230;2024-01-15T11:14:45;7.80;;;1.20;;
27412;SDS011;14871;52.702;5.230;2024-01-15T11:17:12;10.05;;;1.65;;
27412;SDS011;14871;52.702;5.230;2024-01-15T11:19:42;8.10;;;1.58;;
27412;SDS011;14871;52.702;5.230;2024-01-15T11:22:09;5.68;;;1.60;;
27412;SDS011;14871;52.702;5.230;2024-01-15T11:24:56;7.22;;;1.35;;
27412;SDS011;14871;52.702;5.230;2024-01-15T11:27:43;9.57;;;1.48;;
27412;SDS011;14871;52.702;5.230;2024-01-15T11:30:13;5.10;;;1.05;;
27412;SDS011;14871;52.702;5.230;2024-01-15T11:32:39;8.43;;;1.17;;
27412;SDS011;14871;52.702;5.230;2024-01-15T11:35:08;11.13;;;1.27;;
27412;SDS011;14871;52.702;5.230;2024-01-15T11:40:17;8.80;;;1.52;;
27412;SDS011;14871;52.702;5.230;2024-01-15T11:42:44;7.45;;;1.10;;
27412;SDS011;14871;52.702;5.230;2024-01-15T11:45:10;8.27;;;1.13;;
27412;SDS011;14871;52.702;5.230;2024-01-15T11:50:21;6.72;;;0.98;;
27412;SDS011;14871;52.702;5.230;2024-01-15T11:52:50;4.75;;;0.77;;
27412;SDS011;14871;52.702;5.230;2024-01-15T11:58:03;3.97;;;0.98;;
27412;SDS011;14871;52.702;5.230;2024-01-15T12:00:34;4.15;;;0.82;;
27412;SDS011;14871;52.702;5.230;2024-01-15T12:03:12;2.40;;;0.52;;
27412;SDS011;14871;52.702;5.230;2024-01-15T12:05:38;5.13;;;0.50;;
27412;SDS011;14871;52.702;5.230;2024-01-15T12:08:04;3.45;;;0.80;;
27412;SDS011;14871;52.702;5.230;2024-01-15T12:10:36;3.78;;;0.90;;
27412;SDS011;14871;52.702;5.230;2024-01-15T12:13:10;1.65;;;0.65;;
27412;SDS011;14871;52.702;5.230;2024-01-15T12:15:37;5.45;;;0.85;;
27412;SDS011;14871;52.702;5.230;2024-01-15T12:18:06;3.65;;;0.70;;
27412;SDS011;14871;52.702;5.230;2024-01-15T12:20:33;5.05;;;0.90;;
27412;SDS011;14871;52.702;5.230;2024-01-15T12:22:59;9.70;;;1.33;;
27412;SDS011;14871;52.702;5.230;2024-01-15T12:25:25;7.00;;;1.10;;
27412;SDS011;14871;52.702;5.230;2024-01-15T12:27:52;5.88;;;0.90;;
27412;SDS011;14871;52.702;5.230;2024-01-15T12:30:18;2.58;;;0.70;;
27412;SDS011;14871;52.702;5.230;2024-01-15T12:32:44;3.58;;;0.80;;
27412;SDS011;14871;52.702;5.230;2024-01-15T12:35:12;3.63;;;0.65;;
27412;SDS011;14871;52.702;5.230;2024-01-15T12:37:41;8.30;;;1.17;;
27412;SDS011;14871;52.702;5.230;2024-01-15T12:40:08;4.57;;;1.15;;
27412;SDS011;14871;52.702;5.230;2024-01-15T12:42:35;5.70;;;1.63;;
27412;SDS011;14871;52.702;5.230;2024-01-15T12:45:01;7.60;;;1.23;;
27412;SDS011;14871;52.702;5.230;2024-01-15T12:47:29;6.82;;;1.13;;
27412;SDS011;14871;52.702;5.230;2024-01-15T12:49:55;7.72;;;1.23;;
27412;SDS011;14871;52.702;5.230;2024-01-15T12:52:22;6.68;;;1.27;;
27412;SDS011;14871;52.702;5.230;2024-01-15T12:54:48;5.28;;;1.20;;
27412;SDS011;14871;52.702;5.230;2024-01-15T12:57:15;3.40;;;1.00;;
27412;SDS011;14871;52.702;5.230;2024-01-15T12:59:42;9.93;;;1.20;;
27412;SDS011;14871;52.702;5.230;2024-01-15T13:02:11;7.53;;;1.60;;
27412;SDS011;14871;52.702;5.230;2024-01-15T13:04:37;9.38;;;1.65;;
27412;SDS011;14871;52.702;5.230;2024-01-15T13:07:04;10.73;;;1.92;;
27412;SDS011;14871;52.702;5.230;2024-01-15T13:09:31;10.73;;;1.63;;
27412;SDS011;14871;52.702;5.230;2024-01-15T13:11:57;11.70;;;1.67;;
27412;SDS011;14871;52.702;5.230;2024-01-15T13:14:23;9.07;;;1.40;;
27412;SDS011;14871;52.702;5.230;2024-01-15T13:16:48;7.53;;;1.20;;
27412;SDS011;14871;52.702;5.230;2024-01-15T13:19:14;6.50;;;1.48;;
27412;SDS011;14871;52.702;5.230;2024-01-15T13:21:40;11.25;;;1.52;;
27412;SDS011;14871;52.702;5.230;2024-01-15T13:24:06;9.40;;;1.50;;
27412;SDS011;14871;52.702;5.230;2024-01-15T13:26:32;10.70;;;1.98;;
27412;SDS011;14871;52.702;5.230;2024-01-15T13:29:01;7.28;;;1.83;;
27412;SDS011;14871;52.702;5.230;2024-01-15T13:31:30;12.65;;;1.80;;
27412;SDS011;14871;52.702;5.230;2024-01-15T13:33:56;14.52;;;2.10;;
27412;SDS011;14871;52.702;5.230;2024-01-15T13:36:25;10.57;;;2.03;;
27412;SDS011;14871;52.702;5.230;2024-01-15T13:38:53;8.15;;;1.50;;
27412;SDS011;14871;52.702;5.230;2024-01-15T13:41:19;10.20;;;1.80;;
27412;SDS011;14871;52.702;5.230;2024-01-15T13:43:53;7.78;;;1.90;;
27412;SDS011;14871;52.702;5.230;2024-01-15T13:46:20;17.00;;;1.90;;
27412;SDS011;14871;52.702;5.230;2024-01-15T13:48:46;8.00;;;1.55;;
27412;SDS011;14871;52.702;5.230;2024-01-15T13:51:12;11.63;;;2.17;;
27412;SDS011;14871;52.702;5.230;2024-01-15T13:53:38;9.52;;;2.38;;
27412;SDS011;14871;52.702;5.230;2024-01-15T13:56:04;10.15;;;1.77;;
27412;SDS011;14871;52.702;5.230;2024-01-15T13:58:31;12.05;;;2.20;;
27412;SDS011;14871;52.702;5.230;2024-01-15T14:00:57;6.63;;;1.42;;
27412;SDS011;14871;52.702;5.230;2024-01-15T14:03:23;10.15;;;1.83;;
27412;SDS011;14871;52.702;5.230;2024-01-15T14:05:50;10.75;;;1.77;;
27412;SDS011;14871;52.702;5.230;2024-01-15T14:08:16;12.93;;;2.10;;
27412;SDS011;14871;52.702;5.230;2024-01-15T14:10:42;11.43;;;2.13;;
27412;SDS011;14871;52.702;5.230;2024-01-15T14:13:07;12.77;;;2.10;;
27412;SDS011;14871;52.702;5.230;2024-01-15T14:15:33;7.88;;;1.70;;
27412;SDS011;14871;52.702;5.230;2024-01-15T14:17:59;4.82;;;1.10;;
27412;SDS011;14871;52.702;5.230;2024-01-15T14:20:26;7.63;;;1.30;;
27412;SDS011;14871;52.702;5.230;2024-01-15T14:22:52;7.78;;;1.38;;
27412;SDS011;14871;52.702;5.230;2024-01-15T14:25:19;3.58;;;1.10;;
27412;SDS011;14871;52.702;5.230;2024-01-15T14:27:45;6.68;;;1.20;;
27412;SDS011;14871;52.702;5.230;2024-01-15T14:30:11;7.03;;;1.60;;
27412;SDS011;14871;52.702;5.230;2024-01-15T14:32:38;12.45;;;1.35;;
27412;SDS011;14871;52.702;5.230;2024-01-15T14:35:04;8.90;;;1.48;;
27412;SDS011;14871;52.702;5.230;2024-01-15T14:37:35;4.53;;;0.77;;
27412;SDS011;14871;52.702;5.230;2024-01-15T14:40:05;4.32;;;0.93;;
27412;SDS011;14871;52.702;5.230;2024-01-15T14:42:32;10.20;;;1.40;;
27412;SDS011;14871;52.702;5.230;2024-01-15T14:44:59;12.25;;;1.50;;
27412;SDS011;14871;52.702;5.230;2024-01-15T14:47:24;9.80;;;1.52;;
27412;SDS011;14871;52.702;5.230;2024-01-15T14:49:50;8.60;;;1.58;;